createdAt,value
2023-02-24T00:01:25.137Z,19.10
2023-02-24T00:03:59.937Z,19.60
2023-02-24T00:06:36.282Z,19.30
2023-02-24T00:09:10.137Z,19.60
2023-02-24T00:11:46.355Z,19.60
2023-02-24T00:14:19.661Z,18.80
2023-02-24T00:16:53.190Z,19.80
2023-02-24T00:19:29.253Z,19.20
2023-02-24T00:22:02.558Z,20.00
2023-02-24T00:24:35.942Z,18.90
2023-02-24T00:27:12.011Z,18.90
2023-02-24T00:29:48.403Z,18.30
2023-02-24T00:32:20.839Z,19.20
2023-02-24T00:34:53.431Z,18.10
2023-02-24T00:37:25.735Z,19.10
2023-02-24T00:39:59.171Z,19.40
2023-02-24T00:42:31.983Z,19.10
2023-02-24T00:45:10.460Z,17.90
2023-02-24T00:50:15.448Z,16.90
2023-02-24T00:52:49.284Z,18.60
2023-02-24T00:55:23.582Z,20.20
2023-02-24T00:57:56.387Z,24.00
2023-02-24T01:00:29.911Z,20.70
2023-02-24T01:03:02.348Z,21.80
2023-02-24T01:05:39.073Z,21.20
2023-02-24T01:08:11.580Z,24.20
2023-02-24T01:11:03.960Z,22.50
2023-02-24T01:13:36.343Z,20.00
2023-02-24T01:16:09.468Z,20.80
2023-02-24T01:18:41.861Z,21.80
2023-02-24T01:21:14.865Z,20.20
2023-02-24T01:23:50.605Z,19.70
2023-02-24T01:26:24.215Z,21.50
2023-02-24T01:28:56.834Z,19.50
2023-02-24T01:31:29.452Z,19.00
2023-02-24T01:34:06.063Z,20.10
2023-02-24T01:36:39.550Z,19.60
2023-02-24T01:39:12.574Z,18.20
2023-02-24T01:41:47.409Z,19.60
2023-02-24T01:44:54.257Z,20.60
2023-02-24T01:47:31.319Z,19.20
2023-02-24T01:50:06.814Z,19.60
2023-02-24T01:52:40.145Z,18.60
2023-02-24T01:55:20.367Z,18.80
2023-02-24T01:57:55.388Z,19.70
2023-02-24T02:00:38.231Z,18.40
2023-02-24T02:03:20.902Z,17.80
2023-02-24T02:05:54.201Z,19.00
2023-02-24T02:08:27.204Z,19.50
2023-02-24T02:11:04.360Z,20.00
2023-02-24T02:13:41.310Z,19.20
2023-02-24T02:16:36.231Z,19.90
2023-02-24T02:19:33.122Z,18.80
2023-02-24T02:22:19.268Z,18.70
2023-02-24T02:24:58.516Z,19.10
2023-02-24T02:28:02.960Z,19.30
2023-02-24T02:31:04.122Z,18.40
2023-02-24T02:34:08.106Z,19.20
2023-02-24T02:36:50.515Z,20.20
2023-02-24T02:39:29.180Z,19.10
2023-02-24T02:42:14.508Z,19.30
2023-02-24T02:44:56.170Z,20.10
2023-02-24T02:47:35.035Z,20.00
2023-02-24T02:50:18.473Z,20.10
2023-02-24T02:52:56.882Z,19.90
2023-02-24T02:58:09.765Z,20.80
2023-02-24T03:00:50.304Z,20.50
2023-02-24T03:03:22.927Z,21.70
2023-02-24T03:05:58.298Z,20.30
2023-02-24T03:08:37.332Z,20.80
2023-02-24T03:11:14.158Z,21.50
2023-02-24T03:13:51.036Z,21.70
2023-02-24T03:16:26.658Z,21.90
2023-02-24T03:19:06.236Z,23.30
2023-02-24T03:21:42.244Z,23.30
2023-02-24T03:24:15.997Z,23.70
2023-02-24T03:26:52.571Z,24.00
2023-02-24T03:29:36.578Z,24.60
2023-02-24T03:32:15.709Z,23.50
2023-02-24T03:34:56.875Z,23.70
2023-02-24T03:37:30.418Z,22.80
2023-02-24T03:40:11.976Z,23.30
2023-02-24T03:42:48.437Z,23.50
2023-02-24T03:45:23.340Z,23.30
2023-02-24T03:47:56.501Z,24.60
2023-02-24T03:50:32.017Z,24.30
2023-02-24T03:53:22.483Z,26.00
2023-02-24T03:56:04.852Z,22.80
2023-02-24T03:59:00.155Z,26.30
2023-02-24T04:01:43.302Z,24.90
2023-02-24T04:04:27.602Z,24.70
2023-02-24T04:07:14.119Z,26.60
2023-02-24T04:09:57.991Z,25.30
2023-02-24T04:12:36.931Z,24.70
2023-02-24T04:15:17.293Z,27.00
2023-02-24T04:17:53.737Z,26.30
2023-02-24T04:20:32.150Z,25.70
2023-02-24T04:23:10.192Z,26.80
2023-02-24T04:25:45.084Z,27.00
2023-02-24T04:28:19.090Z,26.80
2023-02-24T04:30:55.535Z,25.80
2023-02-24T04:33:28.528Z,28.00
2023-02-24T04:36:02.988Z,27.10
2023-02-24T04:38:36.306Z,27.30
2023-02-24T04:41:08.743Z,25.70
2023-02-24T04:43:41.088Z,26.60
2023-02-24T04:46:13.593Z,27.60
2023-02-24T04:48:46.652Z,27.60
2023-02-24T04:51:21.291Z,28.90
2023-02-24T04:53:55.654Z,27.40
2023-02-24T04:56:29.098Z,26.80
2023-02-24T04:59:02.785Z,28.40
2023-02-24T05:01:35.013Z,27.70
2023-02-24T05:04:08.595Z,27.10
2023-02-24T05:06:44.193Z,26.60
2023-02-24T05:09:18.779Z,28.90
2023-02-24T05:11:53.324Z,28.00
2023-02-24T05:14:26.019Z,27.80
2023-02-24T05:17:01.725Z,29.50
2023-02-24T05:19:52.150Z,29.50
2023-02-24T05:22:24.489Z,30.40
2023-02-24T05:24:57.708Z,28.70
2023-02-24T05:27:29.877Z,28.10
2023-02-24T05:30:02.635Z,26.90
2023-02-24T05:32:35.381Z,29.60
2023-02-24T05:35:08.864Z,29.00
2023-02-24T05:37:43.277Z,27.90
2023-02-24T05:40:16.072Z,29.30
2023-02-24T05:42:48.117Z,28.30
2023-02-24T05:45:20.351Z,27.20
2023-02-24T05:47:55.229Z,28.20
2023-02-24T05:50:27.442Z,26.70
2023-02-24T05:52:59.795Z,26.90
2023-02-24T05:55:33.019Z,27.50
2023-02-24T05:58:07.414Z,27.20
2023-02-24T06:00:41.192Z,24.90
2023-02-24T06:03:17.672Z,26.00
2023-02-24T06:05:59.349Z,23.20
2023-02-24T06:08:42.171Z,26.50
2023-02-24T06:11:15.933Z,26.20
2023-02-24T06:13:48.946Z,27.40
2023-02-24T06:16:21.755Z,25.50
2023-02-24T06:18:54.124Z,25.30
2023-02-24T06:21:29.439Z,26.40
2023-02-24T06:24:02.804Z,25.40
2023-02-24T06:26:36.949Z,24.80
2023-02-24T06:29:13.329Z,24.30
2023-02-24T06:31:48.870Z,23.00
2023-02-24T06:34:21.613Z,24.00
2023-02-24T06:36:53.990Z,24.00
2023-02-24T06:39:26.032Z,34.10
2023-02-24T06:42:03.996Z,32.00
2023-02-24T06:44:38.427Z,28.20
2023-02-24T06:47:13.197Z,21.90
2023-02-24T06:49:45.192Z,23.90
2023-02-24T06:52:19.396Z,25.50
2023-02-24T06:54:52.609Z,25.20
2023-02-24T06:57:25.083Z,22.40
2023-02-24T06:59:57.163Z,20.20
2023-02-24T07:02:39.796Z,23.20
2023-02-24T07:05:14.960Z,28.00
2023-02-24T07:07:47.751Z,38.30
2023-02-24T07:10:20.277Z,41.90
2023-02-24T07:12:54.864Z,22.20
2023-02-24T07:15:32.084Z,20.40
2023-02-24T07:18:14.998Z,21.70
2023-02-24T07:20:47.882Z,20.90
2023-02-24T07:23:21.228Z,21.50
2023-02-24T07:25:53.569Z,21.90
2023-02-24T07:28:26.467Z,20.10
2023-02-24T07:30:58.504Z,21.30
2023-02-24T07:33:34.451Z,20.60
2023-02-24T07:36:09.750Z,21.30
2023-02-24T07:38:42.693Z,23.00
2023-02-24T07:41:19.282Z,21.80
2023-02-24T07:43:53.079Z,22.60
2023-02-24T07:46:28.153Z,22.20
2023-02-24T07:49:01.340Z,21.60
2023-02-24T07:51:33.674Z,21.80
2023-02-24T07:54:08.882Z,21.40
2023-02-24T07:56:46.286Z,20.30
2023-02-24T07:59:22.170Z,20.00
2023-02-24T08:01:56.022Z,19.40
2023-02-24T08:04:30.593Z,17.80
2023-02-24T08:07:05.479Z,18.90
2023-02-24T08:10:03.899Z,24.10
2023-02-24T08:12:36.237Z,25.30
2023-02-24T08:15:17.727Z,29.50
2023-02-24T08:17:49.810Z,29.80
2023-02-24T08:20:23.218Z,28.30
2023-02-24T08:22:56.854Z,74.20
2023-02-24T08:25:36.756Z,47.90
2023-02-24T08:28:11.902Z,25.90
2023-02-24T08:30:46.572Z,17.40
2023-02-24T08:33:23.203Z,16.30
2023-02-24T08:36:01.809Z,15.50
2023-02-24T08:38:45.034Z,15.50
2023-02-24T08:41:28.057Z,16.40
2023-02-24T08:44:03.152Z,16.00
2023-02-24T08:46:38.143Z,16.90
2023-02-24T08:49:11.046Z,15.60
2023-02-24T08:51:44.114Z,15.60
2023-02-24T08:54:17.822Z,15.40
2023-02-24T08:56:56.241Z,16.00
2023-02-24T08:59:49.396Z,15.30
2023-02-24T09:02:27.510Z,27.40
2023-02-24T09:05:03.600Z,36.50
2023-02-24T09:07:43.416Z,22.30
2023-02-24T09:10:19.406Z,18.90
2023-02-24T09:12:53.997Z,22.80
2023-02-24T09:15:41.437Z,24.70
2023-02-24T09:18:14.697Z,20.40
2023-02-24T09:21:16.297Z,20.40
2023-02-24T09:23:48.496Z,17.80
2023-02-24T09:26:20.923Z,17.80
2023-02-24T09:28:56.919Z,20.80
2023-02-24T09:31:41.088Z,18.10
2023-02-24T09:34:18.945Z,19.00
2023-02-24T09:37:03.367Z,20.90
2023-02-24T09:39:52.927Z,21.10
2023-02-24T09:42:46.373Z,19.20
2023-02-24T09:45:33.751Z,20.70
2023-02-24T09:48:21.544Z,18.50
2023-02-24T09:51:05.315Z,18.90
2023-02-24T22:02:32.838Z,11.70
2023-02-24T22:05:26.741Z,12.50
2023-02-24T22:08:15.897Z,12.90
2023-02-24T22:11:05.255Z,13.10
2023-02-24T22:13:54.426Z,13.40
2023-02-24T22:16:45.669Z,13.80
2023-02-24T22:19:35.569Z,14.90
2023-02-24T22:22:24.627Z,15.50
2023-02-24T22:25:14.670Z,14.80
2023-02-24T22:30:56.962Z,14.10
2023-02-24T22:33:45.925Z,13.70
2023-02-24T22:36:37.935Z,14.20
2023-02-24T22:39:27.014Z,13.10
2023-02-24T22:42:17.290Z,11.40
2023-02-24T22:45:09.456Z,12.00
2023-02-24T22:47:59.903Z,11.90
2023-02-24T22:50:48.750Z,12.50
2023-02-24T22:53:41.285Z,11.60
2023-02-24T22:56:35.507Z,11.30
2023-02-24T22:59:24.501Z,11.30
2023-02-24T23:02:14.523Z,11.50
2023-02-24T23:05:03.887Z,11.60
2023-02-24T23:07:56.040Z,12.90
2023-02-24T23:10:45.003Z,12.70
2023-02-24T23:16:27.774Z,11.50
2023-02-24T23:19:20.372Z,11.80
2023-02-24T23:22:09.584Z,12.00
2023-02-24T23:24:58.570Z,11.30
2023-02-24T23:27:48.527Z,12.40
2023-02-24T23:30:44.056Z,10.50
2023-02-24T23:33:34.458Z,11.40
2023-02-24T23:36:27.268Z,10.60
2023-02-24T23:39:20.208Z,11.80
2023-02-24T23:42:09.579Z,12.00
2023-02-24T23:44:58.780Z,11.00
2023-02-24T23:47:48.067Z,10.80
2023-02-24T23:50:38.306Z,10.40
2023-02-24T23:53:27.261Z,10.50
2023-02-24T23:56:18.958Z,10.70
2023-02-24T23:59:07.093Z,10.70
